createdAt,value
2022-09-23T00:01:01.872Z,64.59
2022-09-23T00:02:06.464Z,64.62
2022-09-23T00:03:10.582Z,64.78
2022-09-23T00:04:13.570Z,64.77
2022-09-23T00:05:17.174Z,64.51
2022-09-23T00:06:22.764Z,64.47
2022-09-23T00:07:25.996Z,64.18
2022-09-23T00:08:29.654Z,64.07
2022-09-23T00:09:32.855Z,63.88
2022-09-23T00:10:38.409Z,63.75
2022-09-23T00:11:41.470Z,63.62
2022-09-23T00:12:44.420Z,63.53
2022-09-23T00:13:49.205Z,63.44
2022-09-23T00:14:52.283Z,63.40
2022-09-23T00:15:55.228Z,63.30
2022-09-23T00:16:58.390Z,63.01
2022-09-23T00:18:01.529Z,62.85
2022-09-23T00:19:04.754Z,62.76
2022-09-23T00:20:08.979Z,62.58
2022-09-23T00:21:14.154Z,62.47
2022-09-23T00:22:17.171Z,62.31
2022-09-23T00:23:20.126Z,62.16
2022-09-23T00:24:23.895Z,62.11
2022-09-23T00:25:28.751Z,62.07
2022-09-23T00:26:31.835Z,61.84
2022-09-23T00:27:35.772Z,61.86
2022-09-23T00:28:38.925Z,61.84
2022-09-23T00:29:41.946Z,61.74
2022-09-23T00:30:45.264Z,61.73
2022-09-23T00:31:48.239Z,61.71
2022-09-23T00:32:52.407Z,61.59
2022-09-23T00:33:57.270Z,61.46
2022-09-23T00:35:00.540Z,61.29
2022-09-23T00:36:05.927Z,61.25
2022-09-23T00:37:09.184Z,61.41
2022-09-23T00:38:13.515Z,61.28
2022-09-23T00:39:16.477Z,61.17
2022-09-23T00:40:19.665Z,61.29
2022-09-23T00:41:24.350Z,61.42
2022-09-23T00:42:27.394Z,61.54
2022-09-23T00:43:52.233Z,61.58
2022-09-23T00:44:59.689Z,61.77
2022-09-23T00:46:03.227Z,61.74
2022-09-23T00:47:12.798Z,61.84
2022-09-23T00:48:20.612Z,61.84
2022-09-23T00:49:27.012Z,62.00
2022-09-23T00:50:36.343Z,62.02
2022-09-23T00:51:42.849Z,62.05
2022-09-23T00:52:47.156Z,62.00
2022-09-23T00:53:51.547Z,62.07
2022-09-23T00:54:56.842Z,62.12
2022-09-23T00:56:02.746Z,62.22
2022-09-23T00:57:06.454Z,62.22
2022-09-23T00:58:14.255Z,62.21
2022-09-23T00:59:18.940Z,62.33
2022-09-23T01:00:22.987Z,62.37
2022-09-23T01:01:26.361Z,62.49
2022-09-23T01:02:29.573Z,62.63
2022-09-23T01:03:32.492Z,62.74
2022-09-23T01:04:36.143Z,62.78
2022-09-23T01:05:39.607Z,62.93
2022-09-23T01:06:42.582Z,63.03
2022-09-23T01:07:45.888Z,63.16
2022-09-23T01:08:49.417Z,63.24
2022-09-23T01:09:53.037Z,63.28
2022-09-23T01:11:08.598Z,63.39
2022-09-23T01:12:22.151Z,63.46
2022-09-23T01:13:54.166Z,63.63
2022-09-23T01:15:09.855Z,63.76
2022-09-23T01:16:35.063Z,63.93
2022-09-23T01:17:50.612Z,64.02
2022-09-23T01:19:05.769Z,64.28
2022-09-23T01:20:21.524Z,64.52
2022-09-23T01:21:34.197Z,64.79
2022-09-23T01:22:43.644Z,65.28
2022-09-23T01:24:19.030Z,65.40
2022-09-23T01:25:55.323Z,65.43
2022-09-23T01:27:01.928Z,65.80
2022-09-23T01:28:08.716Z,66.23
2022-09-23T01:29:44.862Z,66.38
2022-09-23T01:30:51.437Z,66.54
2022-09-23T01:32:19.267Z,66.60
2022-09-23T01:33:25.875Z,66.61
2022-09-23T01:34:56.029Z,66.79
2022-09-23T01:36:35.735Z,66.90
2022-09-23T01:38:00.379Z,66.91
2022-09-23T01:39:10.398Z,66.95
2022-09-23T01:40:40.303Z,67.12
2022-09-23T01:41:50.978Z,67.13
2022-09-23T01:42:57.584Z,67.26
2022-09-23T01:44:13.416Z,67.56
2022-09-23T01:45:38.549Z,67.56
2022-09-23T01:46:51.199Z,67.91
2022-09-23T01:47:57.575Z,68.19
2022-09-23T01:49:19.475Z,68.06
2022-09-23T01:50:47.275Z,68.09
2022-09-23T01:51:56.659Z,68.28
2022-09-23T01:53:03.082Z,68.33
2022-09-23T01:54:32.245Z,68.51
2022-09-23T01:55:38.378Z,68.62
2022-09-23T01:56:51.875Z,68.53
2022-09-23T01:58:01.973Z,68.49
2022-09-23T01:59:26.845Z,68.48
2022-09-23T02:00:34.330Z,68.48
2022-09-23T02:01:55.843Z,68.49
2022-09-23T02:03:09.733Z,68.48
2022-09-23T02:04:16.932Z,68.46
2022-09-23T02:05:29.550Z,68.57
2022-09-23T02:06:36.070Z,68.64
2022-09-23T02:07:50.630Z,68.64
2022-09-23T02:08:59.785Z,68.76
2022-09-23T02:10:09.097Z,68.67
2022-09-23T02:11:14.776Z,68.71
2022-09-23T02:12:20.708Z,68.73
2022-09-23T02:13:28.995Z,68.63
2022-09-23T02:14:38.362Z,68.62
2022-09-23T02:15:44.834Z,68.64
2022-09-23T02:16:51.237Z,68.61
2022-09-23T02:17:58.340Z,68.60
2022-09-23T02:19:10.991Z,68.61
2022-09-23T02:20:19.500Z,68.63
2022-09-23T02:21:26.137Z,68.61
2022-09-23T02:22:41.635Z,68.64
2022-09-23T02:23:50.033Z,68.59
2022-09-23T02:24:54.693Z,68.58
2022-09-23T02:26:16.583Z,68.60
2022-09-23T02:27:41.145Z,68.54
2022-09-23T02:29:17.543Z,68.58
2022-09-23T02:30:26.189Z,68.42
2022-09-23T02:31:44.884Z,68.37
2022-09-23T02:32:57.510Z,68.28
2022-09-23T02:34:07.158Z,68.21
2022-09-23T02:35:20.898Z,68.13
2022-09-23T02:36:34.072Z,68.12
2022-09-23T02:37:43.391Z,67.92
2022-09-23T02:38:50.692Z,67.99
2022-09-23T02:40:24.563Z,67.82
2022-09-23T02:41:36.932Z,67.63
2022-09-23T02:43:04.701Z,67.52
2022-09-23T02:44:11.196Z,67.53
2022-09-23T02:45:14.624Z,67.56
2022-09-23T02:46:18.341Z,67.67
2022-09-23T02:47:24.490Z,67.74
2022-09-23T02:48:31.081Z,67.83
2022-09-23T02:49:35.922Z,67.85
2022-09-23T02:50:39.290Z,67.89
2022-09-23T02:51:42.221Z,67.94
2022-09-23T02:52:46.410Z,68.08
2022-09-23T02:53:49.233Z,68.23
2022-09-23T02:54:52.822Z,68.44
2022-09-23T02:55:56.290Z,69.07
2022-09-23T02:57:02.226Z,69.07
2022-09-23T02:58:05.658Z,68.82
2022-09-23T02:59:10.156Z,68.99
2022-09-23T03:00:14.546Z,68.95
2022-09-23T03:01:38.728Z,69.04
2022-09-23T03:03:03.890Z,69.18
2022-09-23T03:04:10.216Z,69.32
2022-09-23T03:05:21.430Z,69.25
2022-09-23T03:06:31.156Z,69.20
2022-09-23T03:07:58.044Z,69.33
2022-09-23T03:09:04.569Z,69.59
2022-09-23T03:10:25.988Z,69.96
2022-09-23T03:11:28.978Z,70.26
2022-09-23T03:12:47.709Z,70.57
2022-09-23T03:14:10.961Z,70.81
2022-09-23T03:15:37.138Z,71.18
2022-09-23T03:16:49.854Z,71.53
2022-09-23T03:17:56.480Z,71.80
2022-09-23T03:19:02.924Z,72.07
2022-09-23T03:20:09.627Z,72.38
2022-09-23T03:21:18.893Z,72.67
2022-09-23T03:22:31.403Z,73.02
2022-09-23T03:23:36.736Z,73.21
2022-09-23T03:24:44.063Z,73.38
2022-09-23T03:25:49.318Z,73.66
2022-09-23T03:26:53.506Z,73.93
2022-09-23T03:27:58.285Z,73.80
2022-09-23T03:29:04.899Z,73.89
2022-09-23T03:30:09.151Z,74.03
2022-09-23T03:31:13.784Z,74.00
2022-09-23T03:32:19.665Z,74.00
2022-09-23T03:33:28.782Z,74.01
2022-09-23T03:34:33.551Z,74.22
2022-09-23T03:35:41.849Z,74.37
2022-09-23T03:36:51.380Z,74.54
2022-09-23T03:38:03.260Z,74.53
2022-09-23T03:39:09.870Z,74.71
2022-09-23T03:40:27.076Z,74.70
2022-09-23T03:41:37.524Z,74.82
2022-09-23T03:42:41.327Z,74.86
2022-09-23T03:43:45.468Z,74.93
2022-09-23T03:44:53.482Z,75.16
2022-09-23T03:45:57.057Z,75.19
2022-09-23T03:47:02.410Z,75.26
2022-09-23T03:48:06.677Z,75.32
2022-09-23T03:49:19.367Z,75.49
2022-09-23T03:50:22.352Z,75.45
2022-09-23T03:51:25.217Z,75.45
2022-09-23T03:52:28.148Z,75.50
2022-09-23T03:53:31.090Z,75.48
2022-09-23T03:54:33.897Z,75.60
2022-09-23T03:55:38.817Z,75.65
2022-09-23T03:56:41.713Z,75.67
2022-09-23T03:57:45.258Z,75.73
2022-09-23T03:58:48.401Z,75.87
2022-09-23T03:59:51.576Z,75.90
2022-09-23T04:00:55.082Z,75.93
2022-09-23T04:01:59.069Z,75.98
2022-09-23T04:03:01.954Z,76.11
2022-09-23T04:04:04.845Z,76.09
2022-09-23T04:05:09.380Z,76.21
2022-09-23T04:06:12.913Z,76.21
2022-09-23T04:07:16.273Z,76.34
2022-09-23T04:08:19.198Z,76.42
2022-09-23T04:09:22.643Z,76.47
2022-09-23T04:10:25.698Z,76.56
2022-09-23T04:11:28.665Z,76.75
2022-09-23T04:12:31.649Z,76.84
2022-09-23T04:13:34.562Z,76.92
2022-09-23T04:14:37.437Z,76.88
2022-09-23T04:15:40.593Z,76.82
2022-09-23T04:16:44.131Z,76.87
2022-09-23T04:17:47.140Z,76.81
2022-09-23T04:18:50.383Z,76.66
2022-09-23T04:19:53.160Z,76.75
2022-09-23T04:20:59.464Z,76.98
2022-09-23T04:22:02.990Z,76.98
2022-09-23T04:23:06.098Z,76.65
2022-09-23T04:24:10.149Z,76.46
2022-09-23T04:25:13.198Z,76.54
2022-09-23T04:26:18.326Z,76.65
2022-09-23T04:27:21.320Z,76.70
2022-09-23T04:28:24.391Z,76.75
2022-09-23T04:29:27.327Z,76.82
2022-09-23T04:30:30.513Z,76.77
2022-09-23T04:31:34.238Z,76.87
2022-09-23T04:32:37.316Z,76.96
2022-09-23T04:33:40.493Z,76.86
2022-09-23T04:34:44.231Z,76.85
2022-09-23T04:35:50.617Z,76.92
2022-09-23T04:36:53.594Z,76.93
2022-09-23T04:37:56.447Z,76.86
2022-09-23T04:38:59.303Z,76.77
2022-09-23T04:40:02.703Z,76.84
2022-09-23T04:41:10.765Z,76.79
2022-09-23T04:42:13.730Z,76.90
2022-09-23T04:43:17.217Z,76.83
2022-09-23T04:44:20.744Z,76.75
2022-09-23T04:45:23.587Z,76.81
2022-09-23T04:46:26.682Z,76.78
2022-09-23T04:47:31.493Z,76.70
2022-09-23T04:48:36.471Z,76.61
2022-09-23T04:49:40.141Z,76.46
2022-09-23T04:50:43.208Z,76.37
2022-09-23T04:51:47.367Z,76.49
2022-09-23T04:52:50.391Z,76.67
2022-09-23T04:53:54.336Z,76.72
2022-09-23T04:54:57.283Z,76.79
2022-09-23T04:56:06.666Z,76.92
2022-09-23T04:57:10.455Z,77.08
2022-09-23T04:58:13.466Z,77.15
2022-09-23T04:59:16.558Z,77.01
2022-09-23T05:00:21.086Z,77.06
2022-09-23T05:01:26.424Z,77.01
2022-09-23T05:02:29.666Z,77.11
2022-09-23T05:03:34.491Z,76.96
2022-09-23T05:04:37.638Z,76.94
2022-09-23T05:05:40.816Z,77.01
2022-09-23T05:06:44.936Z,76.89
2022-09-23T05:07:48.223Z,76.87
2022-09-23T05:08:54.228Z,76.92
2022-09-23T05:09:57.300Z,76.86
2022-09-23T05:11:02.273Z,76.88
2022-09-23T05:12:05.631Z,76.82
2022-09-23T05:13:09.229Z,76.68
2022-09-23T05:14:12.615Z,76.52
2022-09-23T05:15:15.753Z,76.50
2022-09-23T05:16:19.371Z,76.54
2022-09-23T05:17:23.433Z,76.44
2022-09-23T05:18:28.086Z,76.47
2022-09-23T05:19:31.196Z,76.47
2022-09-23T05:20:34.233Z,76.57
2022-09-23T05:21:38.595Z,76.66
2022-09-23T05:22:41.617Z,76.80
2022-09-23T05:23:52.160Z,76.90
2022-09-23T05:24:55.174Z,77.05
2022-09-23T05:26:01.308Z,77.19
2022-09-23T05:27:06.556Z,77.23
2022-09-23T05:28:09.672Z,77.27
2022-09-23T05:29:12.835Z,77.10
2022-09-23T05:30:16.083Z,77.08
2022-09-23T05:31:21.501Z,77.16
2022-09-23T05:32:25.859Z,77.07
2022-09-23T05:33:29.661Z,77.16
2022-09-23T05:34:32.571Z,77.14
2022-09-23T05:35:35.828Z,77.08
2022-09-23T05:36:39.363Z,76.93
2022-09-23T05:37:42.331Z,77.07
2022-09-23T05:38:45.333Z,77.03
2022-09-23T05:39:48.366Z,77.01
2022-09-23T05:40:58.992Z,77.17
2022-09-23T05:42:02.051Z,77.38
2022-09-23T05:43:05.002Z,77.50
2022-09-23T05:44:08.101Z,77.51
2022-09-23T05:45:11.095Z,77.68
2022-09-23T05:46:17.305Z,77.78
2022-09-23T05:47:20.310Z,77.78
2022-09-23T05:48:23.249Z,77.84
2022-09-23T05:49:42.546Z,77.79
2022-09-23T05:50:31.081Z,77.78
2022-09-23T05:51:35.416Z,77.83
2022-09-23T05:52:38.564Z,77.86
2022-09-23T05:53:44.881Z,77.91
2022-09-23T05:54:49.447Z,77.89
2022-09-23T05:55:54.036Z,77.82
2022-09-23T05:56:59.268Z,77.74
2022-09-23T05:58:02.110Z,77.73
2022-09-23T05:59:05.691Z,77.70
2022-09-23T06:00:10.051Z,77.55
2022-09-23T06:01:25.935Z,77.53
2022-09-23T06:02:29.958Z,77.69
2022-09-23T06:03:33.013Z,77.81
2022-09-23T06:04:35.908Z,77.89
2022-09-23T06:05:39.138Z,77.90
2022-09-23T06:06:42.882Z,77.86
2022-09-23T06:07:45.723Z,77.90
2022-09-23T06:08:48.744Z,77.75
2022-09-23T06:09:53.506Z,77.66
2022-09-23T06:10:56.582Z,77.73
2022-09-23T06:11:59.575Z,77.65
2022-09-23T06:13:02.654Z,77.64
2022-09-23T06:14:06.251Z,77.63
2022-09-23T06:15:10.222Z,77.70
2022-09-23T06:16:15.852Z,77.79
2022-09-23T06:17:18.907Z,77.94
2022-09-23T06:18:22.092Z,78.11
2022-09-23T06:19:25.115Z,78.07
2022-09-23T06:20:28.575Z,78.16
2022-09-23T06:21:33.355Z,78.03
2022-09-23T06:22:39.932Z,77.94
2022-09-23T06:23:44.440Z,77.97
2022-09-23T06:24:47.638Z,78.04
2022-09-23T06:25:50.642Z,77.92
2022-09-23T06:26:54.712Z,77.85
2022-09-23T06:27:58.747Z,78.03
2022-09-23T06:29:02.607Z,78.07
2022-09-23T06:30:06.688Z,78.25
2022-09-23T06:31:14.768Z,78.35
2022-09-23T06:32:19.341Z,78.34
2022-09-23T06:33:33.778Z,78.39
2022-09-23T06:34:27.245Z,78.52
2022-09-23T06:35:32.113Z,78.31
2022-09-23T06:36:43.045Z,78.30
2022-09-23T06:37:40.163Z,78.29
2022-09-23T06:38:44.417Z,78.42
2022-09-23T06:39:48.111Z,78.60
2022-09-23T06:40:52.254Z,78.66
2022-09-23T06:41:55.433Z,78.76
2022-09-23T06:43:01.114Z,78.77
2022-09-23T06:44:04.182Z,78.84
2022-09-23T06:45:09.863Z,78.63
2022-09-23T06:46:15.747Z,78.56
2022-09-23T06:47:18.782Z,78.65
2022-09-23T06:48:24.198Z,78.60
2022-09-23T06:49:27.286Z,78.39
2022-09-23T06:50:30.496Z,78.26
2022-09-23T06:51:34.078Z,78.26
2022-09-23T06:52:37.159Z,78.14
2022-09-23T06:53:40.362Z,78.04
2022-09-23T06:54:43.347Z,77.93
2022-09-23T06:55:46.368Z,77.91
2022-09-23T06:56:49.711Z,77.71
2022-09-23T06:57:54.957Z,77.60
2022-09-23T06:58:58.508Z,77.65
2022-09-23T07:00:01.976Z,77.61
2022-09-23T07:01:10.545Z,77.61
2022-09-23T07:02:13.676Z,77.56
2022-09-23T07:03:16.886Z,77.61
2022-09-23T07:04:19.986Z,77.46
2022-09-23T07:05:22.988Z,77.26
2022-09-23T07:06:25.878Z,77.23
2022-09-23T07:07:31.110Z,77.12
2022-09-23T07:08:35.090Z,77.11
2022-09-23T07:09:38.192Z,76.93
2022-09-23T07:10:41.168Z,76.87
2022-09-23T07:11:46.224Z,76.77
2022-09-23T07:12:49.310Z,76.71
2022-09-23T07:13:52.364Z,76.63
2022-09-23T07:14:56.716Z,76.67
2022-09-23T07:16:01.605Z,76.58
2022-09-23T07:17:04.833Z,76.57
2022-09-23T07:18:07.912Z,76.51
2022-09-23T07:19:11.842Z,76.33
2022-09-23T07:20:17.379Z,76.30
2022-09-23T07:21:20.635Z,76.17
2022-09-23T07:22:24.611Z,76.26
2022-09-23T07:23:27.547Z,75.98
2022-09-23T07:24:30.323Z,75.75
2022-09-23T07:25:33.705Z,75.58
2022-09-23T07:26:36.586Z,75.61
2022-09-23T07:27:39.636Z,75.69
2022-09-23T07:28:42.791Z,75.72
2022-09-23T07:29:50.472Z,75.96
2022-09-23T07:30:59.858Z,75.77
2022-09-23T07:32:10.768Z,75.66
2022-09-23T07:33:15.932Z,75.39
2022-09-23T07:34:11.015Z,75.34
2022-09-23T07:35:14.004Z,75.50
2022-09-23T07:36:18.681Z,75.64
2022-09-23T07:37:21.737Z,75.61
2022-09-23T07:38:26.562Z,75.85
2022-09-23T07:39:29.527Z,75.97
2022-09-23T07:40:32.456Z,76.01
2022-09-23T07:41:35.772Z,75.92
2022-09-23T07:42:40.299Z,75.76
2022-09-23T07:43:44.156Z,75.73
2022-09-23T07:44:47.389Z,75.87
2022-09-23T07:45:51.468Z,76.01
2022-09-23T07:46:54.543Z,75.89
2022-09-23T07:47:57.542Z,75.97
2022-09-23T07:49:01.533Z,75.82
2022-09-23T07:50:07.093Z,75.82
2022-09-23T07:51:12.921Z,75.89
2022-09-23T07:52:16.596Z,75.95
2022-09-23T07:53:20.018Z,75.97
2022-09-23T07:54:24.974Z,76.09
2022-09-23T07:55:28.118Z,76.05
2022-09-23T07:56:31.180Z,76.14
2022-09-23T07:57:34.474Z,75.99
2022-09-23T07:58:37.538Z,75.96
2022-09-23T07:59:42.415Z,75.67
2022-09-23T08:00:45.645Z,75.62
2022-09-23T08:01:52.076Z,75.55
2022-09-23T08:02:55.116Z,75.64
2022-09-23T08:04:00.223Z,75.74
2022-09-23T08:05:05.259Z,75.76
2022-09-23T08:06:11.713Z,75.60
2022-09-23T08:07:14.634Z,75.58
2022-09-23T08:08:17.631Z,75.53
2022-09-23T08:09:23.415Z,75.54
2022-09-23T08:10:26.462Z,75.60
2022-09-23T08:11:29.737Z,75.59
2022-09-23T08:12:32.809Z,75.69
2022-09-23T08:13:36.639Z,75.64
2022-09-23T08:14:39.661Z,75.66
2022-09-23T08:15:46.261Z,75.81
2022-09-23T08:16:50.559Z,75.74
2022-09-23T08:17:53.637Z,75.74
2022-09-23T08:18:56.749Z,75.91
2022-09-23T08:19:59.690Z,75.83
2022-09-23T08:21:03.606Z,75.93
2022-09-23T08:22:06.618Z,75.92
2022-09-23T08:23:11.028Z,75.86
2022-09-23T08:24:19.170Z,75.85
2022-09-23T08:25:23.191Z,75.77
2022-09-23T08:26:26.996Z,75.64
2022-09-23T08:27:31.888Z,75.52
2022-09-23T08:28:35.462Z,75.37
2022-09-23T08:29:38.348Z,75.27
2022-09-23T08:30:41.617Z,75.18
2022-09-23T08:31:45.295Z,75.14
2022-09-23T08:32:50.913Z,75.15
2022-09-23T08:33:57.849Z,75.29
2022-09-23T08:35:01.396Z,75.10
2022-09-23T08:36:04.743Z,74.96
2022-09-23T08:37:11.109Z,74.77
2022-09-23T08:38:14.173Z,74.69
2022-09-23T08:39:19.664Z,74.77
2022-09-23T08:40:24.065Z,74.80
2022-09-23T08:41:45.651Z,74.85
2022-09-23T08:42:49.164Z,74.77
2022-09-23T08:43:58.515Z,74.86
2022-09-23T08:45:04.481Z,74.74
2022-09-23T08:46:13.349Z,74.74
2022-09-23T08:47:32.113Z,74.65
2022-09-23T08:48:38.720Z,74.61
2022-09-23T08:50:02.935Z,74.75
2022-09-23T08:51:09.261Z,74.85
2022-09-23T08:52:15.806Z,74.92
2022-09-23T08:53:31.192Z,74.92
2022-09-23T08:54:34.269Z,74.86
2022-09-23T08:55:51.873Z,74.94
2022-09-23T08:56:59.100Z,74.94
2022-09-23T08:58:25.659Z,75.07
2022-09-23T08:59:43.596Z,75.11
2022-09-23T09:01:06.966Z,74.98
2022-09-23T09:02:22.516Z,74.79
2022-09-23T09:03:29.188Z,74.99
2022-09-23T09:04:38.954Z,75.06
2022-09-23T09:05:50.802Z,75.22
2022-09-23T09:07:34.861Z,75.11
2022-09-23T09:08:16.018Z,75.17
2022-09-23T09:09:28.654Z,75.04
2022-09-23T09:10:35.291Z,74.82
2022-09-23T09:11:45.436Z,74.83
2022-09-23T09:13:00.488Z,75.05
2022-09-23T09:14:34.065Z,75.13
2022-09-23T09:15:43.644Z,75.10
2022-09-23T09:17:02.687Z,75.12
2022-09-23T09:18:07.223Z,75.28
2022-09-23T09:19:21.783Z,75.11
2022-09-23T09:20:31.847Z,74.99
2022-09-23T09:26:34.665Z,74.88
2022-09-23T09:27:40.860Z,75.09
2022-09-23T09:28:47.894Z,75.11
2022-09-23T09:29:54.266Z,75.24
2022-09-23T09:31:03.938Z,75.53
2022-09-23T09:32:16.708Z,75.47
2022-09-23T09:33:23.333Z,75.26
2022-09-23T09:34:36.686Z,75.30
2022-09-23T09:35:49.904Z,75.32
2022-09-23T09:37:20.559Z,75.29
2022-09-23T09:38:23.556Z,75.52
2022-09-23T09:39:27.309Z,75.69
2022-09-23T09:40:30.400Z,75.82
2022-09-23T09:41:33.347Z,75.92
2022-09-23T09:42:40.695Z,75.65
2022-09-23T09:43:48.554Z,75.65
2022-09-23T09:45:03.897Z,75.91
2022-09-23T09:46:22.507Z,75.79
2022-09-23T09:47:32.118Z,75.64
2022-09-23T09:48:41.243Z,75.72
2022-09-23T09:49:50.516Z,75.80
2022-09-23T09:50:55.446Z,75.92
2022-09-23T09:52:22.129Z,76.00
2022-09-23T09:53:27.880Z,75.98
2022-09-23T09:54:30.877Z,75.82
2022-09-23T09:55:34.179Z,75.92
2022-09-23T09:56:37.526Z,75.89
2022-09-23T09:57:53.146Z,75.81
2022-09-23T09:59:02.637Z,75.68
2022-09-23T10:00:27.481Z,75.69
2022-09-23T10:01:32.664Z,75.63
2022-09-23T10:02:38.642Z,75.79
2022-09-23T10:03:44.301Z,75.91
2022-09-23T10:04:56.666Z,75.99
2022-09-23T10:05:59.899Z,76.01
2022-09-23T10:07:14.959Z,75.94
2022-09-23T10:08:27.296Z,75.85
2022-09-23T10:09:36.572Z,75.64
2022-09-23T10:10:43.514Z,75.64
2022-09-23T10:12:05.125Z,75.75
2022-09-23T10:13:15.639Z,75.75
2022-09-23T10:14:18.441Z,75.43
2022-09-23T10:15:40.192Z,75.48
2022-09-23T10:16:43.795Z,75.41
2022-09-23T10:17:50.733Z,75.38
2022-09-23T10:18:55.936Z,75.34
2022-09-23T10:20:02.406Z,75.29
2022-09-23T10:21:13.930Z,75.03
2022-09-23T10:22:27.409Z,75.00
2022-09-23T10:23:32.167Z,74.90
2022-09-23T10:24:38.157Z,75.02
2022-09-23T10:25:42.334Z,75.21
2022-09-23T10:26:48.907Z,75.21
2022-09-23T10:27:51.949Z,74.89
2022-09-23T10:28:55.355Z,74.80
2022-09-23T10:30:01.591Z,74.85
2022-09-23T10:32:38.097Z,74.97
2022-09-23T10:33:49.962Z,74.94
2022-09-23T10:35:00.239Z,74.99
2022-09-23T10:36:03.372Z,74.82
2022-09-23T10:37:09.942Z,74.83
2022-09-23T10:38:12.993Z,74.87
2022-09-23T10:39:29.962Z,74.81
2022-09-23T10:40:55.104Z,74.82
2022-09-23T10:42:32.232Z,74.79
2022-09-23T10:44:16.680Z,74.81
2022-09-23T10:45:44.686Z,74.86
2022-09-23T10:47:00.298Z,74.92
2022-09-23T10:48:28.055Z,74.92
2022-09-23T10:49:46.206Z,75.02
2022-09-23T10:50:51.145Z,74.98
2022-09-23T10:52:16.014Z,75.06
2022-09-23T10:53:28.677Z,75.07
2022-09-23T10:54:47.185Z,75.16
2022-09-23T10:56:20.606Z,75.03
2022-09-23T10:57:45.048Z,74.82
2022-09-23T10:58:54.435Z,74.76
2022-09-23T11:00:01.430Z,74.93
2022-09-23T11:01:36.605Z,75.02
2022-09-23T11:02:58.067Z,75.02
2022-09-23T11:04:36.430Z,75.06
2022-09-23T11:05:58.101Z,75.00
2022-09-23T11:07:17.672Z,74.90
2022-09-23T11:08:29.846Z,74.88
2022-09-23T11:09:53.146Z,74.84
2022-09-23T11:11:15.144Z,74.74
2022-09-23T11:12:52.390Z,74.78
2022-09-23T11:14:18.581Z,74.85
2022-09-23T11:15:27.896Z,74.71
2022-09-23T11:16:51.741Z,74.76
2022-09-23T11:18:32.387Z,74.73
2022-09-23T11:20:13.576Z,74.82
2022-09-23T11:21:44.425Z,74.99
2022-09-23T11:22:57.091Z,75.01
2022-09-23T11:24:11.321Z,75.10
2022-09-23T11:25:33.072Z,75.23
2022-09-23T11:26:56.433Z,75.25
2022-09-23T11:28:05.780Z,75.30
2022-09-23T11:29:15.711Z,75.17
2022-09-23T11:30:19.766Z,75.00
2022-09-23T11:31:55.113Z,75.01
2022-09-23T11:33:18.973Z,74.95
2022-09-23T11:34:54.851Z,74.88
2022-09-23T11:36:03.321Z,74.87
2022-09-23T11:37:18.870Z,74.79
2022-09-23T11:38:25.624Z,74.70
2022-09-23T11:39:38.403Z,74.37
2022-09-23T11:40:46.517Z,74.06
2022-09-23T11:41:53.645Z,73.79
2022-09-23T11:43:00.283Z,73.70
2022-09-23T11:44:12.783Z,73.65
2022-09-23T11:45:28.892Z,73.59
2022-09-23T11:46:41.513Z,73.46
2022-09-23T11:47:53.757Z,73.52
2022-09-23T11:49:00.153Z,73.34
2022-09-23T11:50:27.230Z,73.25
2022-09-23T11:52:07.148Z,73.22
2022-09-23T11:53:25.400Z,73.17
2022-09-23T11:54:37.664Z,72.81
2022-09-23T11:55:55.618Z,72.50
2022-09-23T11:56:55.504Z,72.55
2022-09-23T11:58:20.078Z,72.54
2022-09-23T11:59:36.609Z,72.48
2022-09-23T12:00:36.214Z,72.34
2022-09-23T12:01:46.149Z,71.85
2022-09-23T12:03:08.676Z,71.76
2022-09-23T12:04:27.605Z,71.79
2022-09-23T12:05:34.562Z,71.75
2022-09-23T12:06:44.210Z,71.54
2022-09-23T12:08:05.387Z,71.17
2022-09-23T12:09:14.733Z,71.07
2022-09-23T12:10:18.849Z,71.06
2022-09-23T12:11:27.957Z,70.98
2022-09-23T12:12:49.393Z,70.68
2022-09-23T12:14:23.023Z,70.58
2022-09-23T12:15:35.760Z,70.56
2022-09-23T12:16:53.157Z,70.40
2022-09-23T12:18:11.958Z,70.19
2022-09-23T12:19:51.891Z,70.09
2022-09-23T12:21:01.609Z,69.96
2022-09-23T12:22:32.421Z,69.94
2022-09-23T12:23:50.772Z,69.75
2022-09-23T12:25:09.860Z,69.78
2022-09-23T12:26:17.077Z,69.79
2022-09-23T12:27:27.469Z,69.48
2022-09-23T12:28:37.224Z,68.97
2022-09-23T12:29:41.469Z,68.73
2022-09-23T12:30:47.442Z,68.62
2022-09-23T12:31:50.661Z,68.20
2022-09-23T12:33:13.519Z,68.09
2022-09-23T12:35:35.175Z,67.73
2022-09-23T12:36:39.433Z,67.74
2022-09-23T12:37:42.956Z,67.75
2022-09-23T12:38:52.763Z,67.64
2022-09-23T12:40:02.261Z,67.64
2022-09-23T12:41:37.180Z,67.65
2022-09-23T12:42:46.505Z,67.80
2022-09-23T12:43:56.053Z,68.01
2022-09-23T12:45:30.110Z,67.96
2022-09-23T12:46:33.282Z,68.15
2022-09-23T12:47:38.543Z,67.89
2022-09-23T12:48:47.726Z,67.65
2022-09-23T12:49:52.772Z,67.65
2022-09-23T12:50:59.536Z,67.31
2022-09-23T12:52:18.100Z,67.15
2022-09-23T12:53:36.667Z,67.04
2022-09-23T12:54:41.714Z,66.89
2022-09-23T12:55:46.535Z,66.97
2022-09-23T12:56:58.245Z,66.89
2022-09-23T12:58:01.374Z,66.90
2022-09-23T12:59:28.818Z,66.55
2022-09-23T13:00:34.269Z,66.43
2022-09-23T13:01:38.283Z,66.26
2022-09-23T13:02:52.835Z,65.99
2022-09-23T13:04:16.463Z,65.72
2022-09-23T13:05:44.486Z,65.36
2022-09-23T13:06:56.862Z,65.46
2022-09-23T13:08:09.627Z,65.44
2022-09-23T13:09:19.335Z,65.41
2022-09-23T13:10:28.909Z,65.23
2022-09-23T13:11:32.839Z,65.15
2022-09-23T13:12:39.047Z,65.35
2022-09-23T13:13:45.238Z,65.52
2022-09-23T13:14:51.099Z,65.58
2022-09-23T13:15:54.474Z,65.32
2022-09-23T13:16:58.674Z,65.33
2022-09-23T13:18:23.397Z,65.47
2022-09-23T13:19:35.365Z,65.58
2022-09-23T13:20:37.884Z,65.65
2022-09-23T13:21:48.974Z,65.09
2022-09-23T13:22:55.612Z,64.97
2022-09-23T13:24:18.453Z,64.90
2022-09-23T13:25:33.593Z,64.71
2022-09-23T13:26:37.138Z,64.83
2022-09-23T13:27:43.196Z,64.68
2022-09-23T13:28:58.280Z,64.65
2022-09-23T13:30:23.622Z,64.64
2022-09-23T13:31:24.038Z,64.67
2022-09-23T13:32:31.236Z,64.72
2022-09-23T13:33:41.892Z,64.35
2022-09-23T13:35:06.396Z,64.18
2022-09-23T13:36:15.081Z,64.11
2022-09-23T13:37:22.781Z,63.96
2022-09-23T13:38:30.442Z,63.84
2022-09-23T13:39:33.399Z,63.74
2022-09-23T13:40:36.693Z,63.97
2022-09-23T13:41:39.807Z,63.92
2022-09-23T13:42:46.910Z,63.66
2022-09-23T13:43:58.247Z,63.35
2022-09-23T13:45:01.168Z,63.41
2022-09-23T13:46:12.512Z,63.26
2022-09-23T13:47:16.149Z,63.36
2022-09-23T13:48:22.203Z,63.44
2022-09-23T13:49:31.287Z,63.54
2022-09-23T13:50:37.928Z,63.75
2022-09-23T13:51:44.247Z,63.82
2022-09-23T13:52:53.633Z,64.05
2022-09-23T13:53:58.800Z,63.97
2022-09-23T13:55:01.868Z,64.18
2022-09-23T13:56:08.574Z,64.22
2022-09-23T13:57:34.238Z,64.34
2022-09-23T13:58:37.134Z,64.36
2022-09-23T13:59:43.012Z,64.60
2022-09-23T14:00:46.626Z,64.55
2022-09-23T14:01:49.668Z,64.54
2022-09-23T14:02:52.745Z,64.49
2022-09-23T14:03:55.640Z,64.46
2022-09-23T14:04:58.709Z,64.23
2022-09-23T14:06:11.007Z,64.22
2022-09-23T14:07:18.254Z,64.07
2022-09-23T14:08:22.803Z,63.93
2022-09-23T14:09:28.191Z,64.00
2022-09-23T14:10:31.265Z,63.99
2022-09-23T14:11:35.109Z,63.89
2022-09-23T14:12:40.772Z,63.78
2022-09-23T14:13:46.107Z,63.62
2022-09-23T14:14:51.647Z,63.48
2022-09-23T14:16:00.683Z,63.34
2022-09-23T14:17:06.159Z,63.45
2022-09-23T14:18:12.673Z,63.52
2022-09-23T14:19:21.572Z,63.57
2022-09-23T14:20:24.731Z,63.55
2022-09-23T14:21:34.512Z,63.30
2022-09-23T14:22:37.617Z,63.16
2022-09-23T14:23:45.424Z,63.18
2022-09-23T14:24:48.873Z,63.09
2022-09-23T14:25:53.400Z,63.09
2022-09-23T14:27:00.205Z,62.90
2022-09-23T14:28:04.028Z,62.86
2022-09-23T14:29:13.556Z,63.01
2022-09-23T14:30:18.507Z,63.05
2022-09-23T14:31:23.117Z,63.07
2022-09-23T14:32:28.156Z,63.01
2022-09-23T14:33:33.840Z,63.00
2022-09-23T14:34:49.595Z,62.97
2022-09-23T14:35:58.957Z,62.96
2022-09-23T14:37:23.726Z,63.00
2022-09-23T14:38:47.138Z,63.10
2022-09-23T14:39:55.746Z,63.15
2022-09-23T14:41:16.854Z,63.24
2022-09-23T14:42:20.157Z,63.24
2022-09-23T14:43:26.039Z,63.36
2022-09-23T14:44:29.024Z,63.64
2022-09-23T14:45:37.975Z,63.61
2022-09-23T14:46:44.545Z,63.68
2022-09-23T14:47:51.111Z,63.68
2022-09-23T14:49:06.485Z,63.67
2022-09-23T14:50:38.795Z,63.57
2022-09-23T14:51:48.629Z,63.66
2022-09-23T14:52:52.039Z,63.67